sensor_id;sensor_type;location;lat;lon;timestamp;temperature;humidity
75357;HTU21D;63946;51.986;5.930;2024-02-21T10:35:48;10.58;72.09
75357;HTU21D;63946;51.986;5.930;2024-02-21T12:20:51;10.70;72.07
75357;HTU21D;63946;51.986;5.930;2024-02-21T12:43:44;11.23;70.73
75357;HTU21D;63946;51.986;5.930;2024-02-21T12:46:35;11.23;70.58
75357;HTU21D;63946;51.986;5.930;2024-02-21T12:49:27;11.20;70.48
75357;HTU21D;63946;51.986;5.930;2024-02-21T12:52:03;11.28;70.43
75357;HTU21D;63946;51.986;5.930;2024-02-21T12:54:35;11.32;70.17
75357;HTU21D;63946;51.986;5.930;2024-02-21T12:57:05;11.32;70.03
75357;HTU21D;63946;51.986;5.930;2024-02-21T12:59:44;11.27;69.91
75357;HTU21D;63946;51.986;5.930;2024-02-21T13:02:25;11.23;69.97
75357;HTU21D;63946;51.986;5.930;2024-02-21T13:05:01;11.20;69.85
75357;HTU21D;63946;51.986;5.930;2024-02-21T13:07:33;11.20;69.78
75357;HTU21D;63946;51.986;5.930;2024-02-21T13:10:02;11.20;69.87
75357;HTU21D;63946;51.986;5.930;2024-02-21T13:12:31;11.27;69.77
75357;HTU21D;63946;51.986;5.930;2024-02-21T13:15:01;11.29;69.80
75357;HTU21D;63946;51.986;5.930;2024-02-21T13:17:30;11.33;69.90
75357;HTU21D;63946;51.986;5.930;2024-02-21T13:20:01;11.34;69.74
75357;HTU21D;63946;51.986;5.930;2024-02-21T13:22:31;11.34;69.62
75357;HTU21D;63946;51.986;5.930;2024-02-21T13:25:04;11.32;69.65
75357;HTU21D;63946;51.986;5.930;2024-02-21T13:27:36;11.33;69.65
75357;HTU21D;63946;51.986;5.930;2024-02-21T13:30:08;11.34;69.55
75357;HTU21D;63946;51.986;5.930;2024-02-21T13:32:37;11.36;69.38
75357;HTU21D;63946;51.986;5.930;2024-02-21T13:35:09;11.39;69.26
75357;HTU21D;63946;51.986;5.930;2024-02-21T13:37:42;11.39;69.35
75357;HTU21D;63946;51.986;5.930;2024-02-21T13:40:14;11.42;69.33
75357;HTU21D;63946;51.986;5.930;2024-02-21T13:42:43;11.41;69.29
75357;HTU21D;63946;51.986;5.930;2024-02-21T13:45:12;11.46;69.20
75357;HTU21D;63946;51.986;5.930;2024-02-21T13:47:43;11.48;69.03
75357;HTU21D;63946;51.986;5.930;2024-02-21T13:50:16;11.49;68.98
75357;HTU21D;63946;51.986;5.930;2024-02-21T13:52:54;11.51;68.78
75357;HTU21D;63946;51.986;5.930;2024-02-21T13:55:23;11.53;68.49
75357;HTU21D;63946;51.986;5.930;2024-02-21T13:57:53;11.48;68.54
75357;HTU21D;63946;51.986;5.930;2024-02-21T14:00:33;11.51;68.39
75357;HTU21D;63946;51.986;5.930;2024-02-21T14:03:02;11.51;68.10
75357;HTU21D;63946;51.986;5.930;2024-02-21T14:05:31;11.46;68.01
75357;HTU21D;63946;51.986;5.930;2024-02-21T14:08:01;11.46;67.97
75357;HTU21D;63946;51.986;5.930;2024-02-21T14:10:31;11.43;67.92
75357;HTU21D;63946;51.986;5.930;2024-02-21T14:13:00;11.46;67.89
75357;HTU21D;63946;51.986;5.930;2024-02-21T14:15:35;11.49;67.95
75357;HTU21D;63946;51.986;5.930;2024-02-21T14:18:09;11.52;67.66
75357;HTU21D;63946;51.986;5.930;2024-02-21T14:20:39;11.54;67.76
75357;HTU21D;63946;51.986;5.930;2024-02-21T14:23:10;11.56;67.62
75357;HTU21D;63946;51.986;5.930;2024-02-21T14:25:39;11.59;67.75
75357;HTU21D;63946;51.986;5.930;2024-02-21T14:28:16;11.63;67.65
75357;HTU21D;63946;51.986;5.930;2024-02-21T14:30:45;11.60;67.73
75357;HTU21D;63946;51.986;5.930;2024-02-21T14:33:25;11.54;67.17
75357;HTU21D;63946;51.986;5.930;2024-02-21T14:35:57;11.51;67.10
75357;HTU21D;63946;51.986;5.930;2024-02-21T14:38:26;11.52;67.24
75357;HTU21D;63946;51.986;5.930;2024-02-21T14:40:55;11.52;67.14
75357;HTU21D;63946;51.986;5.930;2024-02-21T14:43:39;11.49;66.63
75357;HTU21D;63946;51.986;5.930;2024-02-21T14:46:34;11.45;66.73
75357;HTU21D;63946;51.986;5.930;2024-02-21T14:49:09;11.47;66.84
75357;HTU21D;63946;51.986;5.930;2024-02-21T14:51:39;11.47;66.79
75357;HTU21D;63946;51.986;5.930;2024-02-21T14:54:08;11.45;66.89
75357;HTU21D;63946;51.986;5.930;2024-02-21T14:56:39;11.44;66.92
75357;HTU21D;63946;51.986;5.930;2024-02-21T14:59:09;11.46;66.74
75357;HTU21D;63946;51.986;5.930;2024-02-21T15:01:38;11.47;66.71
75357;HTU21D;63946;51.986;5.930;2024-02-21T15:04:07;11.46;66.75
75357;HTU21D;63946;51.986;5.930;2024-02-21T15:06:39;11.47;67.03
75357;HTU21D;63946;51.986;5.930;2024-02-21T15:09:11;11.51;67.18
75357;HTU21D;63946;51.986;5.930;2024-02-21T15:11:42;11.47;66.85
75357;HTU21D;63946;51.986;5.930;2024-02-21T15:14:14;11.40;67.18
75357;HTU21D;63946;51.986;5.930;2024-02-21T15:16:50;11.38;67.28
75357;HTU21D;63946;51.986;5.930;2024-02-21T15:19:22;11.28;67.48
75357;HTU21D;63946;51.986;5.930;2024-02-21T15:21:57;11.25;67.70
75357;HTU21D;63946;51.986;5.930;2024-02-21T15:24:32;11.18;67.82
75357;HTU21D;63946;51.986;5.930;2024-02-21T15:27:11;11.15;67.98
75357;HTU21D;63946;51.986;5.930;2024-02-21T15:29:50;11.16;68.18
75357;HTU21D;63946;51.986;5.930;2024-02-21T15:32:29;11.12;68.41
75357;HTU21D;63946;51.986;5.930;2024-02-21T15:35:01;11.03;68.86
75357;HTU21D;63946;51.986;5.930;2024-02-21T15:41:40;10.84;69.61
75357;HTU21D;63946;51.986;5.930;2024-02-21T15:44:54;10.78;70.07
75357;HTU21D;63946;51.986;5.930;2024-02-21T15:47:54;10.74;70.48
75357;HTU21D;63946;51.986;5.930;2024-02-21T15:51:31;10.72;70.90
75357;HTU21D;63946;51.986;5.930;2024-02-21T15:54:36;10.59;71.26
75357;HTU21D;63946;51.986;5.930;2024-02-21T15:57:49;10.53;71.66
75357;HTU21D;63946;51.986;5.930;2024-02-21T16:00:42;10.48;72.02
75357;HTU21D;63946;51.986;5.930;2024-02-21T16:03:38;10.40;72.29
75357;HTU21D;63946;51.986;5.930;2024-02-21T16:06:47;10.33;72.70
75357;HTU21D;63946;51.986;5.930;2024-02-21T16:13:16;10.26;73.01
75357;HTU21D;63946;51.986;5.930;2024-02-21T16:16:37;10.24;73.20
75357;HTU21D;63946;51.986;5.930;2024-02-21T16:19:20;10.16;73.54
75357;HTU21D;63946;51.986;5.930;2024-02-21T16:22:14;10.10;73.76
75357;HTU21D;63946;51.986;5.930;2024-02-21T16:24:59;10.06;73.98
75357;HTU21D;63946;51.986;5.930;2024-02-21T16:27:40;10.03;74.31
75357;HTU21D;63946;51.986;5.930;2024-02-21T16:30:15;9.98;74.38
75357;HTU21D;63946;51.986;5.930;2024-02-21T16:32:58;9.94;74.70
75357;HTU21D;63946;51.986;5.930;2024-02-21T16:35:58;9.93;74.95
75357;HTU21D;63946;51.986;5.930;2024-02-21T16:38:40;9.90;75.05
75357;HTU21D;63946;51.986;5.930;2024-02-21T16:41:13;9.88;75.14
75357;HTU21D;63946;51.986;5.930;2024-02-21T16:43:55;9.88;75.19
75357;HTU21D;63946;51.986;5.930;2024-02-21T16:46:27;9.84;75.21
75357;HTU21D;63946;51.986;5.930;2024-02-21T16:49:11;9.82;75.38
75357;HTU21D;63946;51.986;5.930;2024-02-21T16:51:48;9.81;75.52
75357;HTU21D;63946;51.986;5.930;2024-02-21T16:54:27;9.79;75.71
75357;HTU21D;63946;51.986;5.930;2024-02-21T16:57:13;9.74;75.89
75357;HTU21D;63946;51.986;5.930;2024-02-21T16:59:42;9.72;76.04
75357;HTU21D;63946;51.986;5.930;2024-02-21T17:02:12;9.68;76.31
75357;HTU21D;63946;51.986;5.930;2024-02-21T17:08:33;9.61;76.59
75357;HTU21D;63946;51.986;5.930;2024-02-21T17:11:38;9.64;76.54
75357;HTU21D;63946;51.986;5.930;2024-02-21T17:25:09;9.52;76.99
75357;HTU21D;63946;51.986;5.930;2024-02-21T17:28:03;9.49;77.21
75357;HTU21D;63946;51.986;5.930;2024-02-21T17:34:11;9.53;77.11
75357;HTU21D;63946;51.986;5.930;2024-02-21T17:37:14;9.54;77.15
75357;HTU21D;63946;51.986;5.930;2024-02-21T17:39:51;9.57;77.13
75357;HTU21D;63946;51.986;5.930;2024-02-21T17:42:44;9.62;77.02
75357;HTU21D;63946;51.986;5.930;2024-02-21T17:45:18;9.59;77.20
75357;HTU21D;63946;51.986;5.930;2024-02-21T17:48:04;9.56;77.34
75357;HTU21D;63946;51.986;5.930;2024-02-21T17:50:49;9.51;77.49
75357;HTU21D;63946;51.986;5.930;2024-02-21T17:53:42;9.50;77.67
75357;HTU21D;63946;51.986;5.930;2024-02-21T17:56:16;9.52;77.75
75357;HTU21D;63946;51.986;5.930;2024-02-21T17:58:51;9.52;77.84
75357;HTU21D;63946;51.986;5.930;2024-02-21T18:01:30;9.52;77.88
75357;HTU21D;63946;51.986;5.930;2024-02-21T18:04:03;9.49;78.00
75357;HTU21D;63946;51.986;5.930;2024-02-21T18:06:43;9.48;78.06
75357;HTU21D;63946;51.986;5.930;2024-02-21T18:09:18;9.49;78.18
75357;HTU21D;63946;51.986;5.930;2024-02-21T18:11:51;9.47;78.29
75357;HTU21D;63946;51.986;5.930;2024-02-21T18:14:28;9.52;78.27
75357;HTU21D;63946;51.986;5.930;2024-02-21T18:17:12;9.51;78.32
75357;HTU21D;63946;51.986;5.930;2024-02-21T18:19:45;9.54;78.25
75357;HTU21D;63946;51.986;5.930;2024-02-21T18:22:15;9.51;78.34
75357;HTU21D;63946;51.986;5.930;2024-02-21T18:24:47;9.50;78.43
75357;HTU21D;63946;51.986;5.930;2024-02-21T18:27:21;9.45;78.63
75357;HTU21D;63946;51.986;5.930;2024-02-21T18:29:56;9.44;78.79
75357;HTU21D;63946;51.986;5.930;2024-02-21T18:32:25;9.40;78.84
75357;HTU21D;63946;51.986;5.930;2024-02-21T18:34:57;9.40;78.91
75357;HTU21D;63946;51.986;5.930;2024-02-21T18:37:36;9.42;78.94
75357;HTU21D;63946;51.986;5.930;2024-02-21T18:40:10;9.41;78.93
75357;HTU21D;63946;51.986;5.930;2024-02-21T18:42:46;9.45;78.88
75357;HTU21D;63946;51.986;5.930;2024-02-21T18:45:15;9.39;79.01
75357;HTU21D;63946;51.986;5.930;2024-02-21T18:47:46;9.37;79.15
75357;HTU21D;63946;51.986;5.930;2024-02-21T18:50:15;9.36;79.34
75357;HTU21D;63946;51.986;5.930;2024-02-21T18:52:48;9.36;79.42
75357;HTU21D;63946;51.986;5.930;2024-02-21T18:55:20;9.40;79.44
75357;HTU21D;63946;51.986;5.930;2024-02-21T18:57:50;9.41;79.38
75357;HTU21D;63946;51.986;5.930;2024-02-21T19:00:22;9.41;79.42
75357;HTU21D;63946;51.986;5.930;2024-02-21T19:02:55;9.40;79.45
75357;HTU21D;63946;51.986;5.930;2024-02-21T19:05:26;9.45;79.49
75357;HTU21D;63946;51.986;5.930;2024-02-21T19:07:57;9.42;79.48
75357;HTU21D;63946;51.986;5.930;2024-02-21T19:10:30;9.42;79.61
75357;HTU21D;63946;51.986;5.930;2024-02-21T19:13:01;9.44;79.63
75357;HTU21D;63946;51.986;5.930;2024-02-21T19:15:34;9.46;79.52
75357;HTU21D;63946;51.986;5.930;2024-02-21T19:18:04;9.44;79.54
75357;HTU21D;63946;51.986;5.930;2024-02-21T19:20:33;9.46;79.58
75357;HTU21D;63946;51.986;5.930;2024-02-21T19:23:11;9.47;79.56
75357;HTU21D;63946;51.986;5.930;2024-02-21T19:25:50;9.46;79.63
75357;HTU21D;63946;51.986;5.930;2024-02-21T19:28:43;9.46;79.65
75357;HTU21D;63946;51.986;5.930;2024-02-21T19:31:27;9.48;79.62
75357;HTU21D;63946;51.986;5.930;2024-02-21T19:34:26;9.51;79.58
75357;HTU21D;63946;51.986;5.930;2024-02-21T19:37:02;9.47;79.62
75357;HTU21D;63946;51.986;5.930;2024-02-21T19:39:32;9.44;79.82
75357;HTU21D;63946;51.986;5.930;2024-02-21T19:42:13;9.42;79.98
75357;HTU21D;63946;51.986;5.930;2024-02-21T19:44:43;9.44;80.01
75357;HTU21D;63946;51.986;5.930;2024-02-21T19:47:18;9.45;80.09
75357;HTU21D;63946;51.986;5.930;2024-02-21T19:49:53;9.44;80.13
75357;HTU21D;63946;51.986;5.930;2024-02-21T19:52:22;9.40;80.20
75357;HTU21D;63946;51.986;5.930;2024-02-21T19:54:54;9.39;80.31
75357;HTU21D;63946;51.986;5.930;2024-02-21T19:57:23;9.41;80.42
75357;HTU21D;63946;51.986;5.930;2024-02-21T19:59:52;9.42;80.36
75357;HTU21D;63946;51.986;5.930;2024-02-21T20:02:23;9.39;80.53
75357;HTU21D;63946;51.986;5.930;2024-02-21T20:04:56;9.37;80.69
75357;HTU21D;63946;51.986;5.930;2024-02-21T20:07:31;9.40;80.72
75357;HTU21D;63946;51.986;5.930;2024-02-21T20:10:15;9.44;80.73
75357;HTU21D;63946;51.986;5.930;2024-02-21T20:12:47;9.42;80.73
75357;HTU21D;63946;51.986;5.930;2024-02-21T20:15:16;9.40;80.88
75357;HTU21D;63946;51.986;5.930;2024-02-21T20:18:00;9.38;80.98
75357;HTU21D;63946;51.986;5.930;2024-02-21T20:20:33;9.38;80.99
75357;HTU21D;63946;51.986;5.930;2024-02-21T20:23:02;9.39;81.07
75357;HTU21D;63946;51.986;5.930;2024-02-21T20:25:41;9.40;81.11
75357;HTU21D;63946;51.986;5.930;2024-02-21T20:28:16;9.41;81.10
75357;HTU21D;63946;51.986;5.930;2024-02-21T20:30:47;9.46;81.01
75357;HTU21D;63946;51.986;5.930;2024-02-21T20:33:21;9.48;80.91
75357;HTU21D;63946;51.986;5.930;2024-02-21T20:35:50;9.50;80.94
75357;HTU21D;63946;51.986;5.930;2024-02-21T20:38:20;9.53;80.91
75357;HTU21D;63946;51.986;5.930;2024-02-21T20:40:49;9.55;80.91
75357;HTU21D;63946;51.986;5.930;2024-02-21T20:43:20;9.59;80.86
75357;HTU21D;63946;51.986;5.930;2024-02-21T20:45:59;9.60;80.75
75357;HTU21D;63946;51.986;5.930;2024-02-21T20:48:28;9.60;80.83
75357;HTU21D;63946;51.986;5.930;2024-02-21T20:51:01;9.59;80.81
75357;HTU21D;63946;51.986;5.930;2024-02-21T20:53:30;9.57;80.92
75357;HTU21D;63946;51.986;5.930;2024-02-21T20:56:05;9.59;80.99
75357;HTU21D;63946;51.986;5.930;2024-02-21T20:58:42;9.57;81.04
75357;HTU21D;63946;51.986;5.930;2024-02-21T21:01:12;9.57;81.01
75357;HTU21D;63946;51.986;5.930;2024-02-21T21:03:41;9.59;80.99
75357;HTU21D;63946;51.986;5.930;2024-02-21T21:06:13;9.61;80.94
75357;HTU21D;63946;51.986;5.930;2024-02-21T21:08:42;9.61;81.04
75357;HTU21D;63946;51.986;5.930;2024-02-21T21:11:11;9.62;81.06
75357;HTU21D;63946;51.986;5.930;2024-02-21T21:13:40;9.64;81.17
75357;HTU21D;63946;51.986;5.930;2024-02-21T21:16:10;9.66;81.10
75357;HTU21D;63946;51.986;5.930;2024-02-21T21:18:39;9.69;81.08
75357;HTU21D;63946;51.986;5.930;2024-02-21T21:21:08;9.70;81.05
75357;HTU21D;63946;51.986;5.930;2024-02-21T21:23:40;9.68;81.13
75357;HTU21D;63946;51.986;5.930;2024-02-21T21:26:09;9.68;81.26
75357;HTU21D;63946;51.986;5.930;2024-02-21T21:28:38;9.71;81.29
75357;HTU21D;63946;51.986;5.930;2024-02-21T21:31:09;9.70;81.30
75357;HTU21D;63946;51.986;5.930;2024-02-21T21:33:41;9.71;81.23
75357;HTU21D;63946;51.986;5.930;2024-02-21T21:36:11;9.69;81.32
75357;HTU21D;63946;51.986;5.930;2024-02-21T21:38:40;9.71;81.51
75357;HTU21D;63946;51.986;5.930;2024-02-21T21:41:16;9.72;81.52
75357;HTU21D;63946;51.986;5.930;2024-02-21T21:43:47;9.70;81.62
75357;HTU21D;63946;51.986;5.930;2024-02-21T21:46:22;9.74;81.62
75357;HTU21D;63946;51.986;5.930;2024-02-21T21:48:59;9.75;81.62
75357;HTU21D;63946;51.986;5.930;2024-02-21T21:51:30;9.79;81.61
75357;HTU21D;63946;51.986;5.930;2024-02-21T21:53:59;9.79;81.58
75357;HTU21D;63946;51.986;5.930;2024-02-21T21:56:30;9.80;81.59
75357;HTU21D;63946;51.986;5.930;2024-02-21T21:59:07;9.81;81.69
75357;HTU21D;63946;51.986;5.930;2024-02-21T22:01:39;9.82;81.75
75357;HTU21D;63946;51.986;5.930;2024-02-21T22:04:14;9.83;81.75
75357;HTU21D;63946;51.986;5.930;2024-02-21T22:06:44;9.82;81.76
75357;HTU21D;63946;51.986;5.930;2024-02-21T22:09:19;9.86;81.78
75357;HTU21D;63946;51.986;5.930;2024-02-21T22:11:52;9.88;81.70
75357;HTU21D;63946;51.986;5.930;2024-02-21T22:14:23;9.91;81.66
75357;HTU21D;63946;51.986;5.930;2024-02-21T22:16:53;9.90;81.72
75357;HTU21D;63946;51.986;5.930;2024-02-21T22:19:28;9.92;81.73
75357;HTU21D;63946;51.986;5.930;2024-02-21T22:22:01;9.92;81.78
75357;HTU21D;63946;51.986;5.930;2024-02-21T22:24:32;9.91;81.90
75357;HTU21D;63946;51.986;5.930;2024-02-21T22:27:01;9.93;81.96
75357;HTU21D;63946;51.986;5.930;2024-02-21T22:29:31;9.94;81.99
75357;HTU21D;63946;51.986;5.930;2024-02-21T22:32:05;9.96;81.94
75357;HTU21D;63946;51.986;5.930;2024-02-21T22:34:35;10.00;81.81
75357;HTU21D;63946;51.986;5.930;2024-02-21T22:37:04;10.01;81.75
75357;HTU21D;63946;51.986;5.930;2024-02-21T22:39:34;10.01;81.82
75357;HTU21D;63946;51.986;5.930;2024-02-21T22:42:06;10.03;81.90
75357;HTU21D;63946;51.986;5.930;2024-02-21T22:44:41;10.04;81.92
75357;HTU21D;63946;51.986;5.930;2024-02-21T22:47:12;10.05;81.97
75357;HTU21D;63946;51.986;5.930;2024-02-21T22:49:44;10.08;81.92
75357;HTU21D;63946;51.986;5.930;2024-02-21T22:52:13;10.09;81.84
75357;HTU21D;63946;51.986;5.930;2024-02-21T22:54:45;10.10;81.86
75357;HTU21D;63946;51.986;5.930;2024-02-21T22:57:16;10.11;81.97
75357;HTU21D;63946;51.986;5.930;2024-02-21T22:59:47;10.12;81.98
75357;HTU21D;63946;51.986;5.930;2024-02-21T23:02:19;10.14;81.97
75357;HTU21D;63946;51.986;5.930;2024-02-21T23:04:50;10.14;82.05
75357;HTU21D;63946;51.986;5.930;2024-02-21T23:07:19;10.16;82.03
